Bookmark and Share
Track history (hours):
 

Oceanographic research ship Arca (Netherlands)

Detailed information on ship capabilities available from University of Delaware's Ocean Information Center.

Last reported at 2014-Apr-17 23:32 UTC. Time now 2014-Apr-18 00:16 UTC.
Position N 52°06' E 004°16'.

Length 83 m; draft 4.8 m.

Type: Law enforcement. MMSI: 244454000.

NotesDate/timePositionNaut miles runAvg speedWind from/ knotsBaromVisibWave heightAir tempDewpointWater temp
2014-Apr-17 23:32N 52°06' E 004°16'0 0.0
2014-Apr-17 22:32N 52°06' E 004°16'0 0.0
2014-Apr-17 21:32N 52°06' E 004°16'0 0.0
2014-Apr-17 20:32N 52°06' E 004°16'0 0.0
2014-Apr-17 19:32N 52°06' E 004°16'0 0.0
2014-Apr-17 18:32N 52°06' E 004°16'0 0.0
2014-Apr-17 17:32N 52°06' E 004°16'0 0.0
2014-Apr-17 16:32N 52°06' E 004°16'0 0.0
2014-Apr-17 15:32N 52°06' E 004°16'0 0.0
2014-Apr-17 14:32N 52°06' E 004°16'0 0.0
2014-Apr-17 13:32N 52°06' E 004°16'0 0.0
2014-Apr-17 12:32N 52°06' E 004°16'0 0.0
2014-Apr-17 11:32N 52°06' E 004°16'7 6.7
2014-Apr-17 10:33N 52°12' E 004°18'1111.1
2014-Apr-17 09:33N 52°23' E 004°24'1111.2
2014-Apr-17 08:33N 52°34' E 004°28'5 4.7
2014-Apr-17 07:31N 52°38' E 004°29'0 0.4
2014-Apr-17 06:33N 52°38' E 004°28'0 0.3
2014-Apr-17 05:32N 52°39' E 004°28'0 0.0
2014-Apr-17 04:32N 52°39' E 004°28'0 0.0
2014-Apr-17 03:32N 52°39' E 004°28'0 0.0
2014-Apr-17 02:32N 52°39' E 004°28'0 0.0
2014-Apr-17 01:32N 52°39' E 004°28'0 0.1
2014-Apr-17 00:32N 52°39' E 004°28'0 0.0
2014-Apr-16 23:32N 52°39' E 004°28'0 0.0
2014-Apr-16 22:32N 52°39' E 004°28'0 0.0
2014-Apr-16 21:32N 52°39' E 004°28'0 0.0
2014-Apr-16 20:32N 52°39' E 004°28'0 0.0
2014-Apr-16 19:32N 52°39' E 004°28'0 0.1
2014-Apr-16 18:32N 52°39' E 004°28'0 0.1
2014-Apr-16 17:33N 52°39' E 004°28'1 1.0
2014-Apr-16 16:33N 52°38' E 004°29'0 0.4
2014-Apr-16 15:33N 52°38' E 004°30'1 0.6
2014-Apr-16 14:33N 52°39' E 004°31'1 0.5
2014-Apr-16 13:33N 52°38' E 004°30'1010.2
2014-Apr-16 12:34N 52°28' E 004°32'2 1.5
2014-Apr-16 11:28N 52°28' E 004°35'5 5.8
2014-Apr-16 10:34N 52°32' E 004°30'1312.9
2014-Apr-16 09:33N 52°45' E 004°28'9 9.3
2014-Apr-16 08:33N 52°54' E 004°31'0 0.5
2014-Apr-16 07:33N 52°54' E 004°30'0 0.4
2014-Apr-16 06:33N 52°54' E 004°30'0 0.1
2014-Apr-16 03:28N 52°55' E 004°30'0 0.1
2014-Apr-16 02:28N 52°54' E 004°29'0 0.1
2014-Apr-16 01:28N 52°54' E 004°29'0 0.0
2014-Apr-16 00:28N 52°54' E 004°29'0 0.0
2014-Apr-15 19:31N 52°54' E 004°30'0 0.1
2014-Apr-15 18:34N 52°54' E 004°30'1 0.8
2014-Apr-15 17:33N 52°54' E 004°31'1 0.6
2014-Apr-15 16:33N 52°54' E 004°31'0 0.2
2014-Apr-15 15:33N 52°54' E 004°32'0 0.2
2014-Apr-15 14:33N 52°54' E 004°32'1 0.4
2014-Apr-15 12:34N 52°54' E 004°31'0 0.3
2014-Apr-15 11:34N 52°55' E 004°31'0 0.4
2014-Apr-15 10:34N 52°54' E 004°32'0 0.2
2014-Apr-15 09:34N 52°54' E 004°32'1 1.1
2014-Apr-15 08:34N 52°55' E 004°31'0 0.4
2014-Apr-15 07:34N 52°55' E 004°30'0 0.3
2014-Apr-15 06:34N 52°55' E 004°30'0 0.3
2014-Apr-15 05:34N 52°55' E 004°30'4 2.2
2014-Apr-15 03:34N 52°50' E 004°31'3 3.4
2014-Apr-15 02:34N 52°48' E 004°33'6 6.0
2014-Apr-15 01:34N 52°42' E 004°31'8 7.6
2014-Apr-15 00:34N 52°34' E 004°30'7 7.0
2014-Apr-14 23:34N 52°27' E 004°27'7 6.5
2014-Apr-14 22:34N 52°21' E 004°23'6 6.3
2014-Apr-14 21:34N 52°16' E 004°19'6 5.6
2014-Apr-14 20:34N 52°10' E 004°16'4 4.2
2014-Apr-14 19:32N 52°06' E 004°16'0 0.0
2014-Apr-14 18:31N 52°06' E 004°16'0 0.0
2014-Apr-14 17:31N 52°06' E 004°16'0 0.0
2014-Apr-14 16:31N 52°06' E 004°16'0 0.0
2014-Apr-14 15:31N 52°06' E 004°16'0 0.0
2014-Apr-14 14:31N 52°06' E 004°16'0 0.0
2014-Apr-14 13:31N 52°06' E 004°16'0 0.0
2014-Apr-14 11:31N 52°06' E 004°16'0 0.0
2014-Apr-14 10:31N 52°06' E 004°16'0 0.0
2014-Apr-14 09:31N 52°06' E 004°16'0 0.0
2014-Apr-14 08:31N 52°06' E 004°16'0 0.0
2014-Apr-14 07:31N 52°06' E 004°16'0 0.0
2014-Apr-14 06:31N 52°06' E 004°16'0 0.0
2014-Apr-14 05:31N 52°06' E 004°16'0 0.0
2014-Apr-13 22:31N 52°06' E 004°16'0 0.0
2014-Apr-13 21:28N 52°06' E 004°16'0 0.0
2014-Apr-13 20:31N 52°06' E 004°16'0 0.0
2014-Apr-13 19:25N 52°06' E 004°16'0 0.0
2014-Apr-13 18:28N 52°06' E 004°16'0 0.0
2014-Apr-13 17:31N 52°06' E 004°16'0 0.0
2014-Apr-13 16:31N 52°06' E 004°16'0 0.0
2014-Apr-13 15:31N 52°06' E 004°16'0 0.0
2014-Apr-13 14:31N 52°06' E 004°16'0 0.0
2014-Apr-13 13:28N 52°06' E 004°16'0 0.0
2014-Apr-13 12:31N 52°06' E 004°16'0 0.0
2014-Apr-13 11:31N 52°06' E 004°16'0 0.0
2014-Apr-13 10:31N 52°06' E 004°16'0 0.0
2014-Apr-13 09:31N 52°06' E 004°16'0 0.0
2014-Apr-13 08:31N 52°06' E 004°16'0 0.0
2014-Apr-13 07:31N 52°06' E 004°16'0 0.0
2014-Apr-13 06:31N 52°06' E 004°16'0 0.0
2014-Apr-13 05:28N 52°06' E 004°16'0 0.0
2014-Apr-13 04:31N 52°06' E 004°16'0 0.0
2014-Apr-13 03:31N 52°06' E 004°16'0 0.0
2014-Apr-13 02:31N 52°06' E 004°16'0 0.0
2014-Apr-13 01:31N 52°06' E 004°16'0 0.0
2014-Apr-13 00:31N 52°06' E 004°16'0 0.0
2014-Apr-12 23:31N 52°06' E 004°16'0 0.0
2014-Apr-12 22:31N 52°06' E 004°16'0 0.0
2014-Apr-12 21:31N 52°06' E 004°16'0 0.0
2014-Apr-12 20:31N 52°06' E 004°16'0 0.0
2014-Apr-12 19:31N 52°06' E 004°16'0 0.0
2014-Apr-12 18:31N 52°06' E 004°16'0 0.0
2014-Apr-12 17:31N 52°06' E 004°16'0 0.0
2014-Apr-12 16:31N 52°06' E 004°16'0 0.0
2014-Apr-12 15:31N 52°06' E 004°16'0 0.0
2014-Apr-12 14:31N 52°06' E 004°16'0 0.0
2014-Apr-12 13:31N 52°06' E 004°16'0 0.0
2014-Apr-12 12:31N 52°06' E 004°16'0 0.0
2014-Apr-12 11:31N 52°06' E 004°16'0 0.0
2014-Apr-12 10:28N 52°06' E 004°16'0 0.0
2014-Apr-12 09:31N 52°06' E 004°16'0 0.0
2014-Apr-12 08:31N 52°06' E 004°16'0 0.0
2014-Apr-12 07:31N 52°06' E 004°16'0 0.0
2014-Apr-12 06:31N 52°06' E 004°16'0 0.0
2014-Apr-12 05:31N 52°06' E 004°16'0 0.0
2014-Apr-12 04:31N 52°06' E 004°16'0 0.0
2014-Apr-12 03:31N 52°06' E 004°16'0 0.0
2014-Apr-12 02:31N 52°06' E 004°16'0 0.0
2014-Apr-12 01:31N 52°06' E 004°16'0 0.0
2014-Apr-12 00:31N 52°06' E 004°16'0 0.0
2014-Apr-11 23:31N 52°06' E 004°16'0 0.0
2014-Apr-11 22:31N 52°06' E 004°16'0 0.0
2014-Apr-11 21:31N 52°06' E 004°16'0 0.0
2014-Apr-11 20:31N 52°06' E 004°16'0 0.0
2014-Apr-11 19:28N 52°06' E 004°16'0 0.0
2014-Apr-11 18:25N 52°06' E 004°16'0 0.0
2014-Apr-11 17:31N 52°06' E 004°16'0 0.0
2014-Apr-11 16:31N 52°06' E 004°16'0 0.0
2014-Apr-11 15:31N 52°06' E 004°16'0 0.0
2014-Apr-11 14:31N 52°06' E 004°16'0 0.0
2014-Apr-11 13:31N 52°06' E 004°16'0 0.0
2014-Apr-11 12:31N 52°06' E 004°16'0 0.0
2014-Apr-11 11:31N 52°06' E 004°16'0 0.0
2014-Apr-11 10:28N 52°06' E 004°16'0 0.0
2014-Apr-11 09:31N 52°06' E 004°16'0 0.0
2014-Apr-11 08:31N 52°06' E 004°16'0 0.0
2014-Apr-11 07:31N 52°06' E 004°16'0 0.0
2014-Apr-11 06:31N 52°06' E 004°16'0 0.0
2014-Apr-11 05:31N 52°06' E 004°16'0 0.0
2014-Apr-11 04:31N 52°06' E 004°16'0 0.0
2014-Apr-11 03:31N 52°06' E 004°16'0 0.0
2014-Apr-11 02:31N 52°06' E 004°16'0 0.0
2014-Apr-11 01:31N 52°06' E 004°16'0 0.0
2014-Apr-11 00:31N 52°06' E 004°16'0 0.0
2014-Apr-10 23:31N 52°06' E 004°16'0 0.0
2014-Apr-10 22:31N 52°06' E 004°16'0 0.0
2014-Apr-10 21:31N 52°06' E 004°16'0 0.0
2014-Apr-10 20:31N 52°06' E 004°16'0 0.0
2014-Apr-10 19:31N 52°06' E 004°16'0 0.0
2014-Apr-10 18:25N 52°06' E 004°16'0 0.0
2014-Apr-10 17:25N 52°06' E 004°16'0 0.0
2014-Apr-10 16:31N 52°06' E 004°16'0 0.3
2014-Apr-10 15:33N 52°06' E 004°15'10 9.9
2014-Apr-10 14:33N 52°01' E 004°02'2310.3
2014-Apr-10 12:21N 51°47' E 003°33'1 1.7
2014-Apr-10 11:33N 51°46' E 003°31'0 0.2
2014-Apr-10 10:33N 51°46' E 003°31'0 0.3
2014-Apr-10 09:31N 51°46' E 003°30'0 0.1
2014-Apr-10 08:33N 51°46' E 003°30'0 0.2
2014-Apr-10 07:31N 51°45' E 003°31'0 0.3
2014-Apr-10 06:34N 51°46' E 003°30'1 0.4
2014-Apr-10 04:10N 51°46' E 003°32'0 0.0
2014-Apr-10 03:33N 51°46' E 003°32'0 0.1
2014-Apr-10 02:33N 51°46' E 003°32'0 0.1
2014-Apr-10 01:33N 51°46' E 003°32'0 0.0
2014-Apr-10 00:33N 51°46' E 003°32'0 0.0
2014-Apr-09 23:33N 51°46' E 003°32'0 0.0
2014-Apr-09 22:33N 51°46' E 003°32'0 0.0
2014-Apr-09 21:33N 51°46' E 003°32'0 0.0
2014-Apr-09 20:33N 51°46' E 003°32'0 0.0
2014-Apr-09 19:33N 51°46' E 003°32'0 0.0
2014-Apr-09 18:33N 51°46' E 003°32'0 0.1
2014-Apr-09 17:33N 51°46' E 003°32'0 0.1
2014-Apr-09 16:33N 51°46' E 003°32'0 0.2
2014-Apr-09 15:33N 51°46' E 003°31'0 0.2
2014-Apr-09 14:33N 51°46' E 003°31'0 0.2
2014-Apr-09 13:32N 51°46' E 003°31'1 0.6
2014-Apr-09 12:30N 51°46' E 003°31'1 0.8
2014-Apr-09 11:32N 51°47' E 003°33'1 0.1
2014-Apr-09 07:32N 51°46' E 003°32'1 0.6
2014-Apr-09 06:33N 51°47' E 003°32'3 2.6
2014-Apr-09 05:28N 51°48' E 003°36'3 0.8
2014-Apr-09 01:29N 51°50' E 003°41'0 0.0
2014-Apr-09 00:32N 51°50' E 003°41'0 0.0
2014-Apr-08 23:20N 51°50' E 003°41'0 0.0
2014-Apr-08 21:28N 51°50' E 003°40'910.1
2014-Apr-08 20:33N 51°56' E 003°51'1010.2
2014-Apr-08 19:34N 52°03' E 004°04'8 8.0
2014-Apr-08 18:34N 52°06' E 004°16'0 0.0
2014-Apr-08 17:33N 52°06' E 004°16'0 0.0
2014-Apr-08 16:33N 52°06' E 004°16'0 0.0
2014-Apr-08 15:33N 52°06' E 004°16'8 8.3
2014-Apr-08 14:33N 52°14' E 004°19'1111.3
2014-Apr-08 13:34N 52°24' E 004°28'6 6.0
2014-Apr-08 12:34N 52°28' E 004°35'0 0.4
2014-Apr-08 11:33N 52°28' E 004°34'0 0.3
2014-Apr-08 10:33N 52°28' E 004°34'0 0.1
2014-Apr-08 09:33N 52°28' E 004°34'1 0.6
2014-Apr-08 08:33N 52°28' E 004°35'0 0.0
2014-Apr-08 07:33N 52°28' E 004°35'1 0.6
2014-Apr-08 06:34N 52°28' E 004°34'2 2.5
2014-Apr-08 05:33N 52°26' E 004°31'1 1.5
2014-Apr-08 04:33N 52°25' E 004°30'0 0.0
2014-Apr-08 03:33N 52°25' E 004°30'0 0.0
2014-Apr-08 02:33N 52°25' E 004°30'0 0.0
2014-Apr-08 01:30N 52°25' E 004°30'0 0.1
2014-Apr-08 00:30N 52°25' E 004°30'  

Dump ship's entire track history

sailing weather and tide predictions

Arca — PDHT — position and weather